Time;durP1;ratioP1;P1;durP2;ratioP2;P2;SDS_P1;SDS_P2;PMS_P1;PMS_P2;Temp;Humidity;BMP_temperature;BMP_pressure;BME280_temperature;BME280_humidity;BME280_pressure;Samples;Min_cycle;Max_cycle;Signal;HPM_P1;HPM_P2
2021/09/20 00:01:41;;;;;;;0.60;0.60;;;23.90;47.40;;;;;;4999275;28;20153;-74
2021/09/20 00:04:08;;;;;;;0.40;0.40;;;23.90;47.40;;;;;;4992571;28;20046;-75
2021/09/20 00:06:35;;;;;;;0.47;0.47;;;23.90;47.40;;;;;;5011241;28;20050;-75
2021/09/20 00:09:04;;;;;;;0.50;0.50;;;23.90;47.40;;;;;;5011322;28;20050;-75
2021/09/20 00:11:36;;;;;;;0.40;0.40;;;23.90;47.40;;;;;;4999162;28;20096;-75
2021/09/20 00:14:03;;;;;;;0.52;0.52;;;24.00;47.40;;;;;;5011909;28;20520;-76
2021/09/20 00:16:30;;;;;;;0.57;0.57;;;24.00;47.40;;;;;;5011563;28;20078;-75
2021/09/20 00:18:57;;;;;;;0.60;0.60;;;24.00;47.40;;;;;;5011563;28;20054;-75
2021/09/20 00:21:26;;;;;;;0.55;0.55;;;23.90;47.40;;;;;;4997903;28;20085;-75
2021/09/20 00:23:53;;;;;;;0.70;0.70;;;23.90;47.40;;;;;;5011506;28;20064;-75
2021/09/20 00:26:20;;;;;;;0.40;0.40;;;23.90;47.40;;;;;;5010504;28;20129;-76
2021/09/20 00:28:48;;;;;;;0.50;0.50;;;23.90;47.40;;;;;;5010934;28;20049;-75
2021/09/20 00:31:15;;;;;;;0.50;0.50;;;23.90;47.50;;;;;;4999837;28;20042;-73
2021/09/20 00:33:42;;;;;;;0.50;0.50;;;23.90;47.50;;;;;;5011332;28;20046;-75
2021/09/20 00:36:10;;;;;;;0.50;0.50;;;23.90;47.50;;;;;;5010930;28;20133;-75
2021/09/20 00:38:37;;;;;;;0.50;0.50;;;23.90;47.50;;;;;;5011072;28;20398;-76
2021/09/20 00:41:04;;;;;;;0.60;0.60;;;23.90;47.50;;;;;;4999720;28;20128;-75
2021/09/20 00:43:31;;;;;;;0.65;0.65;;;23.90;47.50;;;;;;5010214;28;20077;-75
2021/09/20 00:45:58;;;;;;;0.55;0.55;;;23.90;47.50;;;;;;5010864;28;20062;-75
2021/09/20 00:48:26;;;;;;;0.70;0.70;;;23.90;47.60;;;;;;5011111;28;20254;-75
2021/09/20 00:50:54;;;;;;;0.85;0.43;;;23.90;47.60;;;;;;4999257;28;20077;-76
2021/09/20 00:53:21;;;;;;;0.70;0.70;;;23.90;47.60;;;;;;5009472;28;20152;-75
2021/09/20 00:55:48;;;;;;;0.47;0.47;;;23.90;47.60;;;;;;4993236;28;20398;-76
2021/09/20 00:58:15;;;;;;;0.52;0.52;;;23.80;47.60;;;;;;4993039;28;20096;-75
2021/09/20 01:00:42;;;;;;;0.70;0.70;;;23.90;47.60;;;;;;5002176;28;20049;-73
2021/09/20 01:03:10;;;;;;;0.50;0.50;;;23.90;47.60;;;;;;5007215;28;20049;-76
2021/09/20 01:05:37;;;;;;;0.52;0.52;;;23.90;47.70;;;;;;5010301;28;20173;-75
2021/09/20 01:08:04;;;;;;;0.50;0.50;;;23.80;47.60;;;;;;5009894;28;20096;-75
2021/09/20 01:10:32;;;;;;;0.70;0.70;;;23.90;47.70;;;;;;5004477;28;20046;-75
2021/09/20 01:12:59;;;;;;;0.50;0.50;;;23.80;47.70;;;;;;5005641;28;20069;-75
2021/09/20 01:15:26;;;;;;;0.50;0.50;;;23.80;47.70;;;;;;5009820;28;20141;-75
2021/09/20 01:17:53;;;;;;;0.60;0.60;;;23.80;47.70;;;;;;5009604;28;20259;-75
2021/09/20 01:20:23;;;;;;;0.50;0.50;;;23.80;47.70;;;;;;5003586;28;20076;-73
2021/09/20 01:22:57;;;;;;;0.60;0.60;;;23.80;47.70;;;;;;5005773;28;20065;-75
2021/09/20 01:25:24;;;;;;;0.52;0.52;;;23.80;47.70;;;;;;5009925;28;20136;-75
2021/09/20 01:27:52;;;;;;;0.70;0.70;;;23.80;47.70;;;;;;5009619;28;20218;-75
2021/09/20 01:30:19;;;;;;;0.47;0.47;;;23.80;47.70;;;;;;5005114;28;20125;-75
2021/09/20 01:32:46;;;;;;;0.35;0.35;;;23.90;47.60;;;;;;5004402;28;20148;-75
2021/09/20 01:35:16;;;;;;;0.60;0.60;;;23.90;47.60;;;;;;5009902;28;20054;-73
2021/09/20 01:37:44;;;;;;;0.50;0.50;;;23.90;47.60;;;;;;5009638;28;20056;-75
2021/09/20 01:40:12;;;;;;;0.70;0.70;;;23.90;47.60;;;;;;5004078;28;20057;-75
2021/09/20 01:42:41;;;;;;;0.50;0.50;;;23.90;47.60;;;;;;5002757;28;20137;-75
2021/09/20 01:45:10;;;;;;;0.50;0.50;;;23.90;47.60;;;;;;5009659;28;20140;-75
2021/09/20 01:47:37;;;;;;;0.50;0.50;;;23.80;47.60;;;;;;5009120;28;20050;-75
2021/09/20 01:50:08;;;;;;;0.55;0.55;;;23.80;47.70;;;;;;5004870;28;20054;-74
2021/09/20 01:52:36;;;;;;;0.57;0.57;;;23.80;47.70;;;;;;5001391;28;20037;-75
2021/09/20 01:55:05;;;;;;;0.98;0.82;;;23.80;47.70;;;;;;4975145;28;20050;-76
2021/09/20 01:57:33;;;;;;;0.50;0.50;;;23.80;47.70;;;;;;5010389;28;20100;-76
2021/09/20 02:00:01;;;;;;;0.50;0.50;;;23.80;47.70;;;;;;5008651;28;20064;-75
2021/09/20 02:02:28;;;;;;;0.60;0.60;;;23.80;47.70;;;;;;4999999;28;20069;-75
2021/09/20 02:04:55;;;;;;;0.50;0.50;;;23.80;47.70;;;;;;4991796;28;20077;-75
2021/09/20 02:07:22;;;;;;;0.50;0.50;;;23.80;47.70;;;;;;5008692;28;20054;-75
2021/09/20 02:09:49;;;;;;;0.60;0.60;;;23.80;47.70;;;;;;5007452;28;20643;-75
2021/09/20 02:12:17;;;;;;;0.57;0.57;;;23.80;47.80;;;;;;5002064;28;20124;-73
2021/09/20 02:14:44;;;;;;;0.55;0.55;;;23.80;47.70;;;;;;5009562;28;20064;-75
2021/09/20 02:17:11;;;;;;;0.50;0.50;;;23.80;47.70;;;;;;5009151;28;20042;-75
2021/09/20 02:19:39;;;;;;;0.30;0.30;;;23.80;47.80;;;;;;5009390;28;20092;-73
2021/09/20 02:22:07;;;;;;;0.70;0.70;;;23.80;47.80;;;;;;4999619;28;20130;-75
2021/09/20 02:24:34;;;;;;;0.73;0.73;;;23.80;47.80;;;;;;5007981;28;20081;-75
2021/09/20 02:27:01;;;;;;;0.60;0.60;;;23.80;47.80;;;;;;4991845;28;20129;-73
2021/09/20 02:29:29;;;;;;;0.70;0.70;;;23.80;47.80;;;;;;5007773;28;20133;-74
2021/09/20 02:31:56;;;;;;;0.68;0.68;;;23.80;47.80;;;;;;4981661;28;20045;-75
2021/09/20 02:34:23;;;;;;;0.50;0.50;;;23.80;47.80;;;;;;5009145;28;20671;-75
2021/09/20 02:36:50;;;;;;;0.50;0.50;;;23.80;47.80;;;;;;5008529;28;20046;-75
2021/09/20 02:39:17;;;;;;;0.70;0.65;;;23.80;47.90;;;;;;5008553;28;20084;-75
2021/09/20 02:41:44;;;;;;;0.40;0.40;;;23.80;47.90;;;;;;4999399;28;20049;-76
2021/09/20 02:44:12;;;;;;;0.47;0.47;;;23.80;47.90;;;;;;5008355;28;20133;-75
2021/09/20 02:46:39;;;;;;;0.60;0.60;;;23.80;47.90;;;;;;5008241;28;20240;-75
2021/09/20 02:49:07;;;;;;;0.70;0.70;;;23.80;47.80;;;;;;4991889;28;20088;-75
2021/09/20 02:51:34;;;;;;;0.60;0.57;;;23.80;47.80;;;;;;4996285;28;20058;-73
2021/09/20 02:54:01;;;;;;;1.70;0.50;;;23.80;47.80;;;;;;5007958;28;20050;-75
2021/09/20 02:56:28;;;;;;;0.45;0.43;;;23.80;47.70;;;;;;5009476;28;20108;-75
2021/09/20 02:58:55;;;;;;;0.50;0.50;;;23.80;47.70;;;;;;5008347;28;20128;-75
2021/09/20 03:01:23;;;;;;;0.60;0.60;;;23.80;47.70;;;;;;4999245;28;20164;-73
2021/09/20 03:03:50;;;;;;;0.50;0.50;;;23.80;47.70;;;;;;5008360;28;20050;-75
2021/09/20 03:06:17;;;;;;;0.40;0.40;;;23.80;47.70;;;;;;5012880;28;20046;-76
2021/09/20 03:08:44;;;;;;;0.60;0.60;;;23.80;47.70;;;;;;5015414;28;20046;-73
2021/09/20 03:11:22;;;;;;;0.52;0.52;;;23.80;47.70;;;;;;5012674;28;20492;-76
2021/09/20 03:13:49;;;;;;;0.50;0.50;;;23.80;47.80;;;;;;5001143;28;20659;-75
2021/09/20 03:16:16;;;;;;;0.47;0.47;;;23.80;47.80;;;;;;4992750;28;20517;-74
2021/09/20 03:18:43;;;;;;;0.70;0.70;;;23.80;47.90;;;;;;5001059;28;20475;-76
2021/09/20 03:21:10;;;;;;;0.85;0.75;;;23.70;47.80;;;;;;5010818;28;20052;-76
2021/09/20 03:23:37;;;;;;;0.65;0.65;;;23.70;47.80;;;;;;4986087;28;20083;-76
2021/09/20 03:26:04;;;;;;;0.50;0.50;;;23.70;48.40;;;;;;5015580;28;20525;-75
2021/09/20 03:28:31;;;;;;;1.10;0.70;;;23.70;47.80;;;;;;4996563;28;20054;-75
2021/09/20 03:30:58;;;;;;;0.52;0.52;;;23.70;47.80;;;;;;5010535;28;20038;-73
2021/09/20 03:33:26;;;;;;;0.65;0.65;;;23.70;47.80;;;;;;4996569;28;20057;-75
2021/09/20 03:35:53;;;;;;;0.80;0.80;;;23.70;47.90;;;;;;5011151;28;20049;-74
2021/09/20 03:38:20;;;;;;;0.43;0.43;;;23.70;47.90;;;;;;5010896;28;20052;-75
2021/09/20 03:40:59;;;;;;;0.70;0.70;;;23.70;47.90;;;;;;5007601;28;20046;-75
2021/09/20 03:43:26;;;;;;;0.52;0.52;;;23.70;47.90;;;;;;5011862;28;20041;-75
2021/09/20 03:45:53;;;;;;;0.60;0.60;;;23.70;47.90;;;;;;5013991;28;20445;-75
2021/09/20 03:48:20;;;;;;;0.77;0.77;;;23.80;48.00;;;;;;5014016;28;20133;-75
2021/09/20 03:50:47;;;;;;;0.70;0.70;;;23.70;47.90;;;;;;5003780;28;20185;-73
2021/09/20 03:53:15;;;;;;;0.60;0.40;;;23.70;47.90;;;;;;5004692;28;20050;-75
2021/09/20 03:55:42;;;;;;;0.50;0.50;;;23.70;47.90;;;;;;5013421;28;20085;-75
2021/09/20 03:58:09;;;;;;;0.73;0.73;;;23.70;47.90;;;;;;5012252;28;20141;-76
2021/09/20 04:00:36;;;;;;;0.77;0.60;;;23.70;47.90;;;;;;5002591;28;20084;-75
2021/09/20 04:03:03;;;;;;;0.60;0.60;;;23.70;47.90;;;;;;4984230;28;20050;-75
2021/09/20 04:05:31;;;;;;;0.60;0.60;;;23.70;48.00;;;;;;5000085;28;20089;-73
2021/09/20 04:07:58;;;;;;;0.47;0.40;;;23.70;48.50;;;;;;5005282;28;20121;-73
2021/09/20 04:10:25;;;;;;;0.65;0.65;;;23.70;48.00;;;;;;4996600;28;20125;-73
2021/09/20 04:12:52;;;;;;;0.50;0.50;;;23.70;48.00;;;;;;5004174;28;20659;-75
2021/09/20 04:15:19;;;;;;;0.63;0.63;;;23.70;48.00;;;;;;5002531;28;20137;-76
2021/09/20 04:17:47;;;;;;;0.70;0.70;;;23.70;48.00;;;;;;4999159;28;20042;-75
2021/09/20 04:20:42;;;;;;;0.52;0.52;;;23.70;48.00;;;;;;4996024;28;20132;-75
2021/09/20 04:23:09;;;;;;;0.60;0.60;;;23.70;47.90;;;;;;4997126;28;20041;-75
2021/09/20 04:25:36;;;;;;;0.47;0.47;;;23.70;47.90;;;;;;4981459;28;20126;-76
2021/09/20 04:28:03;;;;;;;0.30;0.30;;;23.70;47.90;;;;;;4986314;28;20056;-74
2021/09/20 04:30:30;;;;;;;0.85;0.85;;;23.70;47.90;;;;;;4994014;28;20042;-75
2021/09/20 04:32:57;;;;;;;0.80;0.80;;;23.70;47.90;;;;;;4996247;28;20050;-75
2021/09/20 04:35:24;;;;;;;1.05;0.70;;;23.70;47.90;;;;;;4983583;28;20109;-75
2021/09/20 04:37:51;;;;;;;0.50;0.50;;;23.70;47.90;;;;;;5001241;28;20137;-75
2021/09/20 04:40:18;;;;;;;0.63;0.63;;;23.70;47.90;;;;;;4997163;28;20065;-73
2021/09/20 04:42:46;;;;;;;0.60;0.60;;;23.70;47.90;;;;;;4991405;28;20054;-75
2021/09/20 04:45:13;;;;;;;0.52;0.52;;;23.70;47.90;;;;;;5006836;28;20610;-75
2021/09/20 04:47:40;;;;;;;0.68;0.68;;;23.70;48.00;;;;;;5006218;28;20070;-75
2021/09/20 04:50:07;;;;;;;0.70;0.70;;;23.70;47.90;;;;;;5001877;28;20053;-74
2021/09/20 04:52:34;;;;;;;0.60;0.60;;;23.70;47.90;;;;;;5001835;28;20490;-75
2021/09/20 04:55:02;;;;;;;1.05;0.50;;;23.70;48.40;;;;;;5003241;28;20038;-72
2021/09/20 04:57:29;;;;;;;0.80;0.80;;;23.70;47.90;;;;;;5001177;28;20042;-73
2021/09/20 04:59:56;;;;;;;0.75;0.75;;;23.70;47.90;;;;;;4987790;28;20120;-75
2021/09/20 05:02:23;;;;;;;0.70;0.70;;;23.70;47.90;;;;;;5002369;28;20129;-73
2021/09/20 05:04:51;;;;;;;0.82;0.80;;;23.70;48.00;;;;;;5009509;28;20073;-74
2021/09/20 05:07:18;;;;;;;0.77;0.77;;;23.70;48.00;;;;;;4986985;28;20125;-75
2021/09/20 05:09:45;;;;;;;0.70;0.70;;;23.60;48.00;;;;;;5000634;28;20128;-72
2021/09/20 05:12:12;;;;;;;1.00;1.00;;;23.60;47.90;;;;;;4997700;28;20521;-74
2021/09/20 05:14:39;;;;;;;0.95;0.95;;;23.60;47.90;;;;;;5005356;28;20380;-72
2021/09/20 05:17:07;;;;;;;1.00;1.00;;;23.50;47.90;;;;;;5003234;28;20116;-72
2021/09/20 05:19:34;;;;;;;1.45;1.17;;;23.50;48.00;;;;;;5000631;28;20091;-71
2021/09/20 05:22:01;;;;;;;0.73;0.70;;;23.40;48.00;;;;;;4961750;28;20066;-71
2021/09/20 05:24:29;;;;;;;1.40;1.30;;;23.30;48.20;;;;;;5000130;28;20043;-72
2021/09/20 05:26:56;;;;;;;0.90;0.90;;;23.30;48.70;;;;;;4987239;28;20050;-71
2021/09/20 05:29:26;;;;;;;1.35;1.25;;;23.30;49.00;;;;;;4997865;28;20523;-69
2021/09/20 05:31:54;;;;;;;3.45;1.17;;;23.30;49.30;;;;;;4991208;28;20916;-69
2021/09/20 05:34:27;;;;;;;1.35;1.25;;;23.20;49.40;;;;;;4995733;28;20034;-69
2021/09/20 05:36:54;;;;;;;3.13;1.13;;;23.30;49.40;;;;;;5002895;28;20557;-68
2021/09/20 05:39:21;;;;;;;2.50;1.30;;;23.30;49.40;;;;;;4985464;28;20050;-68
2021/09/20 05:41:48;;;;;;;1.58;1.48;;;23.30;49.40;;;;;;4991325;28;20137;-67
2021/09/20 05:44:15;;;;;;;1.48;1.20;;;23.30;49.20;;;;;;4970972;28;20600;-68
2021/09/20 05:46:48;;;;;;;3.85;1.45;;;23.30;49.30;;;;;;4984722;28;20068;-68
2021/09/20 05:49:15;;;;;;;3.40;1.65;;;23.30;49.10;;;;;;4988916;28;20056;-68
2021/09/20 05:51:54;;;;;;;4.10;1.33;;;23.30;49.20;;;;;;4955962;28;20072;-70
2021/09/20 05:54:22;;;;;;;2.78;1.67;;;23.30;49.10;;;;;;4988928;28;20060;-70
2021/09/20 05:56:49;;;;;;;1.50;1.40;;;23.30;48.90;;;;;;4996368;28;20049;-69
2021/09/20 05:59:16;;;;;;;2.53;1.48;;;23.40;48.80;;;;;;4994144;28;20140;-70
2021/09/20 06:01:50;;;;;;;1.60;1.45;;;23.40;48.80;;;;;;4985346;28;20046;-68
2021/09/20 06:04:18;;;;;;;2.30;2.03;;;23.40;48.80;;;;;;4990732;28;20053;-68
2021/09/20 06:06:45;;;;;;;1.83;1.73;;;23.40;49.10;;;;;;4993192;28;20906;-71
2021/09/20 06:09:12;;;;;;;1.70;1.60;;;23.40;49.40;;;;;;4992144;28;20049;-71
2021/09/20 06:11:58;;;;;;;4.35;1.63;;;23.40;49.90;;;;;;4988903;28;20089;-70
2021/09/20 06:14:27;;;;;;;3.20;1.73;;;23.40;50.00;;;;;;4968508;28;20056;-71
2021/09/20 06:16:54;;;;;;;1.92;1.77;;;23.40;50.20;;;;;;4994958;28;20096;-68
2021/09/20 06:19:30;;;;;;;2.83;1.80;;;23.40;50.20;;;;;;4994982;28;20064;-71
2021/09/20 06:22:01;;;;;;;4.45;1.98;;;23.40;50.00;;;;;;4982315;28;20060;-71
2021/09/20 06:24:29;;;;;;;3.33;1.75;;;23.50;49.70;;;;;;4994247;28;20049;-66
2021/09/20 06:26:56;;;;;;;2.42;2.08;;;23.50;49.50;;;;;;4998175;28;20088;-67
2021/09/20 06:29:23;;;;;;;2.95;1.63;;;23.50;49.60;;;;;;4995362;28;20555;-66
2021/09/20 06:31:50;;;;;;;2.47;1.73;;;23.50;50.10;;;;;;4987773;28;20136;-67
2021/09/20 06:34:18;;;;;;;4.30;2.15;;;23.50;50.40;;;;;;4987960;28;20484;-65
2021/09/20 06:36:45;;;;;;;2.28;1.92;;;23.50;50.50;;;;;;4996849;28;20135;-67
2021/09/20 06:39:12;;;;;;;3.13;1.70;;;23.50;50.50;;;;;;4987711;28;20106;-64
2021/09/20 06:41:48;;;;;;;4.10;2.08;;;23.50;50.50;;;;;;4989013;28;20120;-67
2021/09/20 06:44:18;;;;;;;3.58;2.05;;;23.60;50.30;;;;;;5005581;28;20044;-67
2021/09/20 06:46:48;;;;;;;3.85;2.10;;;23.60;50.00;;;;;;5003919;28;20057;-66
2021/09/20 06:49:35;;;;;;;3.33;1.95;;;23.60;49.80;;;;;;5005515;28;20046;-65
2021/09/20 06:52:37;;;;;;;1.67;1.58;;;23.50;49.60;;;;;;4991822;28;20102;-67
2021/09/20 06:55:06;;;;;;;2.47;1.80;;;23.50;49.40;;;;;;4997981;28;20060;-71
2021/09/20 06:57:34;;;;;;;1.98;1.88;;;23.50;49.30;;;;;;4990482;28;20046;-68
2021/09/20 07:03:19;;;;;;;2.22;1.60;;;23.50;49.10;;;;;;4995518;28;20054;-68
2021/09/20 07:05:46;;;;;;;3.20;2.10;;;23.50;49.10;;;;;;4993156;28;20084;-68
2021/09/20 07:08:14;;;;;;;4.65;1.95;;;23.50;49.10;;;;;;4996151;28;20129;-72
2021/09/20 07:10:59;;;;;;;4.18;1.77;;;23.50;49.40;;;;;;4987706;28;20046;-70
2021/09/20 07:13:30;;;;;;;2.40;1.70;;;23.50;49.50;;;;;;4973247;28;20216;-75
2021/09/20 07:15:57;;;;;;;2.40;1.92;;;23.60;49.70;;;;;;4995872;28;20144;-70
2021/09/20 07:18:25;;;;;;;1.83;1.73;;;23.60;49.70;;;;;;4998034;28;20084;-67
2021/09/20 07:20:56;;;;;;;3.03;2.58;;;23.60;50.30;;;;;;4995076;28;20718;-65
2021/09/20 07:23:24;;;;;;;2.63;2.20;;;23.70;49.60;;;;;;4996800;28;20081;-65
2021/09/20 07:25:51;;;;;;;2.10;1.90;;;23.80;49.50;;;;;;4999859;28;20065;-64
2021/09/20 07:28:18;;;;;;;3.00;2.30;;;23.80;49.30;;;;;;4998931;28;20125;-64
2021/09/20 07:30:50;;;;;;;3.08;2.28;;;23.80;49.30;;;;;;4997765;28;20084;-71
2021/09/20 07:33:17;;;;;;;2.78;2.40;;;23.80;49.20;;;;;;4986544;28;20077;-77
2021/09/20 07:35:44;;;;;;;4.15;2.17;;;23.80;49.00;;;;;;5001996;28;20046;-73
2021/09/20 07:38:12;;;;;;;2.70;2.00;;;23.80;48.80;;;;;;5000831;28;20144;-69
2021/09/20 07:40:53;;;;;;;3.45;1.98;;;23.70;48.70;;;;;;4993819;28;20044;-69
2021/09/20 07:43:21;;;;;;;2.58;2.00;;;23.70;48.60;;;;;;4986312;28;20081;-68
2021/09/20 07:45:56;;;;;;;1.95;1.85;;;23.70;48.50;;;;;;5002572;28;20084;-72
2021/09/20 07:48:23;;;;;;;3.67;2.22;;;23.70;48.50;;;;;;5001777;28;20046;-68
2021/09/20 07:50:56;;;;;;;3.15;2.47;;;23.70;48.50;;;;;;4992170;28;20522;-68
2021/09/20 07:53:23;;;;;;;2.90;2.00;;;23.60;48.40;;;;;;4985588;28;20050;-69
2021/09/20 07:55:50;;;;;;;2.03;1.92;;;23.60;48.40;;;;;;5000887;28;20044;-71
2021/09/20 07:58:17;;;;;;;2.40;2.20;;;23.60;48.50;;;;;;4984948;28;20124;-67
2021/09/20 08:01:01;;;;;;;4.28;2.17;;;23.60;48.70;;;;;;4997641;28;20721;-70
2021/09/20 08:03:29;;;;;;;2.95;2.10;;;23.70;48.80;;;;;;4997438;28;20413;-71
2021/09/20 08:05:57;;;;;;;2.53;1.85;;;23.70;48.80;;;;;;4998872;28;20058;-69
2021/09/20 08:08:25;;;;;;;1.83;1.73;;;23.70;48.90;;;;;;5001326;28;20479;-71
2021/09/20 08:11:02;;;;;;;2.17;1.75;;;23.70;48.80;;;;;;4995581;28;20061;-70
2021/09/20 08:13:30;;;;;;;1.50;1.40;;;23.80;48.70;;;;;;4991285;28;20042;-68
2021/09/20 08:15:57;;;;;;;2.53;1.80;;;23.80;48.70;;;;;;5000888;28;20056;-69
2021/09/20 08:18:24;;;;;;;2.60;1.85;;;23.80;48.80;;;;;;4996257;28;20096;-67
2021/09/20 08:21:03;;;;;;;5.10;1.85;;;23.80;49.00;;;;;;4994055;28;20089;-66
2021/09/20 08:23:31;;;;;;;1.87;1.77;;;23.90;49.00;;;;;;4993221;28;20042;-72
2021/09/20 08:25:58;;;;;;;1.95;1.83;;;23.90;49.00;;;;;;5002992;28;20526;-72
2021/09/20 08:28:25;;;;;;;1.92;1.70;;;23.90;49.00;;;;;;4999013;28;20054;-73
2021/09/20 08:31:05;;;;;;;2.97;2.05;;;23.90;48.90;;;;;;4992740;28;20294;-74
2021/09/20 08:33:32;;;;;;;1.67;1.58;;;24.00;48.80;;;;;;4977054;28;20045;-68
2021/09/20 08:35:59;;;;;;;1.70;1.60;;;24.00;48.70;;;;;;4997632;28;20467;-69
2021/09/20 08:38:27;;;;;;;2.45;1.77;;;24.00;48.60;;;;;;5000519;28;20113;-70
2021/09/20 08:41:08;;;;;;;2.35;1.85;;;24.00;48.50;;;;;;4997443;28;20049;-68
2021/09/20 08:43:36;;;;;;;1.95;1.77;;;24.10;48.50;;;;;;4995003;28;20042;-65
2021/09/20 08:46:06;;;;;;;2.70;1.98;;;24.10;48.40;;;;;;4997682;28;20045;-68
2021/09/20 08:48:46;;;;;;;1.80;1.70;;;24.10;48.40;;;;;;4998398;28;20177;-68
2021/09/20 08:51:35;;;;;;;5.57;1.90;;;24.10;48.40;;;;;;4993125;28;20793;-64
2021/09/20 08:54:02;;;;;;;2.00;1.80;;;24.10;48.40;;;;;;4995722;28;20077;-67
2021/09/20 08:56:30;;;;;;;1.58;1.48;;;24.10;48.40;;;;;;5002059;28;20724;-69
2021/09/20 08:58:57;;;;;;;2.65;1.92;;;24.10;48.40;;;;;;5003070;28;20663;-69
2021/09/20 09:01:42;;;;;;;1.85;1.75;;;24.20;48.40;;;;;;4988835;28;20054;-68
2021/09/20 09:04:27;;;;;;;2.60;2.30;;;24.20;48.20;;;;;;4991493;28;20054;-68
2021/09/20 09:07:10;;;;;;;1.67;1.58;;;24.20;48.10;;;;;;4997146;28;20272;-68
2021/09/20 09:09:39;;;;;;;3.97;1.42;;;24.30;48.00;;;;;;4997720;28;20046;-67
2021/09/20 09:12:19;;;;;;;1.52;1.42;;;24.30;48.00;;;;;;4992061;28;20106;-68
2021/09/20 09:15:01;;;;;;;1.50;1.40;;;24.30;48.00;;;;;;4961719;28;20728;-64
2021/09/20 09:17:31;;;;;;;3.17;1.50;;;24.30;47.90;;;;;;4993281;28;20136;-70
2021/09/20 09:20:16;;;;;;;1.30;1.30;;;24.30;48.10;;;;;;4995878;28;20074;-70
2021/09/20 09:22:51;;;;;;;2.10;1.55;;;24.30;47.90;;;;;;4990177;28;20078;-70
2021/09/20 09:25:39;;;;;;;2.17;1.60;;;24.30;47.70;;;;;;4996812;28;20121;-67
2021/09/20 09:28:22;;;;;;;2.00;1.88;;;24.30;47.50;;;;;;4999752;28;20053;-65
2021/09/20 09:31:05;;;;;;;1.80;1.70;;;24.30;47.30;;;;;;4987948;28;20030;-65
2021/09/20 09:33:38;;;;;;;1.92;1.80;;;24.30;47.20;;;;;;4978585;28;20141;-67
2021/09/20 09:36:10;;;;;;;2.20;2.00;;;24.30;47.10;;;;;;5001014;28;20176;-66
2021/09/20 09:38:59;;;;;;;2.20;1.98;;;24.30;47.10;;;;;;5001867;28;20057;-67
2021/09/20 09:41:34;;;;;;;2.60;1.55;;;24.30;47.10;;;;;;4993208;28;20375;-68
2021/09/20 09:44:07;;;;;;;1.50;1.40;;;24.20;47.00;;;;;;5000237;28;20114;-71
2021/09/20 09:46:42;;;;;;;2.20;2.00;;;24.20;47.50;;;;;;5002444;28;20069;-66
2021/09/20 09:49:18;;;;;;;1.92;1.58;;;24.20;47.90;;;;;;5003811;28;20522;-69
2021/09/20 09:52:03;;;;;;;1.73;1.63;;;24.30;48.30;;;;;;4994777;28;20140;-65
2021/09/20 09:54:34;;;;;;;2.03;1.85;;;24.30;48.40;;;;;;4984393;28;20189;-68
2021/09/20 09:57:15;;;;;;;3.05;2.13;;;24.30;48.70;;;;;;5009831;28;20084;-70
2021/09/20 09:59:43;;;;;;;2.70;2.05;;;24.30;48.50;;;;;;5004509;28;20125;-69
2021/09/20 10:02:32;;;;;;;1.88;1.65;;;24.30;48.40;;;;;;4982271;28;20086;-68
2021/09/20 10:05:05;;;;;;;2.05;1.70;;;24.30;48.30;;;;;;4997820;28;20046;-68
2021/09/20 10:07:49;;;;;;;3.08;2.45;;;24.30;48.20;;;;;;5003326;28;20756;-73
2021/09/20 10:11:02;;;;;;;6.35;1.98;;;24.30;48.20;;;;;;5000141;28;20128;-72
2021/09/20 10:13:32;;;;;;;1.83;1.70;;;24.30;48.20;;;;;;4996319;28;20133;-74
2021/09/20 10:16:00;;;;;;;1.70;1.60;;;24.30;48.20;;;;;;4979753;28;20137;-75
2021/09/20 10:18:29;;;;;;;5.63;2.15;;;24.30;48.20;;;;;;5001067;28;20169;-78
2021/09/20 10:21:06;;;;;;;2.50;2.30;;;24.30;48.20;;;;;;4991951;28;20526;-72
2021/09/20 10:23:35;;;;;;;2.22;2.10;;;24.40;48.20;;;;;;4994410;28;20054;-65
2021/09/20 10:26:03;;;;;;;2.85;2.38;;;24.40;48.20;;;;;;5003819;28;20679;-75
2021/09/20 10:28:30;;;;;;;3.17;1.92;;;24.40;48.20;;;;;;5004410;28;20092;-68
2021/09/20 10:30:57;;;;;;;1.80;1.70;;;24.40;48.10;;;;;;4995926;28;20048;-72
2021/09/20 10:33:28;;;;;;;3.08;2.08;;;24.40;48.10;;;;;;5017495;28;20054;-73
2021/09/20 10:35:55;;;;;;;;;;;24.40;48.10;;;;;;5019236;28;20046;-72
2021/09/20 10:38:29;;;;;;;2.20;2.00;;;24.40;48.10;;;;;;5002006;28;19947;-72
2021/09/20 10:41:21;;;;;;;2.75;2.45;;;24.50;48.20;;;;;;4998058;28;20132;-66
2021/09/20 10:44:10;;;;;;;3.13;1.80;;;24.50;48.00;;;;;;4994546;28;20042;-68
2021/09/20 10:46:40;;;;;;;3.25;2.20;;;24.50;48.00;;;;;;4984015;28;20052;-66
2021/09/20 10:49:22;;;;;;;2.53;2.15;;;24.50;47.90;;;;;;5002155;28;20077;-72
2021/09/20 10:52:05;;;;;;;2.35;1.90;;;24.50;47.70;;;;;;4988547;28;21682;-70
2021/09/20 10:54:33;;;;;;;3.28;2.42;;;24.60;47.60;;;;;;4995161;28;20579;-73
2021/09/20 10:57:19;;;;;;;2.38;2.17;;;24.60;47.50;;;;;;4995878;28;20541;-70
2021/09/20 11:00:22;;;;;;;2.08;1.98;;;24.60;47.30;;;;;;4997970;28;20524;-69
2021/09/20 11:02:51;;;;;;;2.20;2.03;;;24.70;47.30;;;;;;4972477;28;20073;-70
2021/09/20 11:05:25;;;;;;;2.40;2.20;;;24.70;47.00;;;;;;4997325;28;20053;-71
2021/09/20 11:07:54;;;;;;;2.72;2.53;;;24.80;46.90;;;;;;4978364;28;20071;-74
2021/09/20 11:10:34;;;;;;;2.60;2.38;;;24.80;46.70;;;;;;4991144;28;20137;-75
2021/09/20 11:13:04;;;;;;;4.45;2.67;;;24.90;46.50;;;;;;4977888;28;20057;-69
2021/09/20 11:15:44;;;;;;;3.85;1.90;;;24.90;46.20;;;;;;4997292;28;20074;-74
2021/09/20 11:18:33;;;;;;;3.67;2.40;;;24.90;46.00;;;;;;4998635;28;20053;-76
2021/09/20 11:21:06;;;;;;;6.28;2.63;;;24.90;46.00;;;;;;4995401;28;20065;-68
2021/09/20 11:23:36;;;;;;;8.80;3.22;;;25.00;46.00;;;;;;4995568;28;20129;-69
2021/09/20 11:26:07;;;;;;;4.15;2.15;;;25.00;45.90;;;;;;5005359;28;20096;-69
2021/09/20 11:28:39;;;;;;;10.43;2.97;;;24.90;45.80;;;;;;5000398;28;20042;-69
2021/09/20 11:31:06;;;;;;;4.65;2.55;;;24.90;45.80;;;;;;4997386;28;20042;-68
2021/09/20 11:33:40;;;;;;;4.18;2.63;;;24.90;45.80;;;;;;4997524;28;20124;-74
2021/09/20 11:36:19;;;;;;;6.40;2.80;;;24.90;45.70;;;;;;4987444;28;20052;-69
2021/09/20 11:38:49;;;;;;;7.22;2.72;;;24.90;45.70;;;;;;5004336;28;20669;-69
2021/09/20 11:41:46;;;;;;;5.55;2.40;;;25.00;45.70;;;;;;4995551;28;20042;-72
2021/09/20 11:44:27;;;;;;;3.70;2.50;;;25.00;45.80;;;;;;4966774;28;20129;-72
2021/09/20 11:46:55;;;;;;;5.05;2.80;;;25.00;45.70;;;;;;5005981;28;20487;-71
2021/09/20 11:49:31;;;;;;;3.85;2.17;;;25.00;45.60;;;;;;5003418;28;20053;-73
2021/09/20 11:51:58;;;;;;;4.35;2.30;;;25.10;45.60;;;;;;5001113;28;20041;-69
2021/09/20 11:54:31;;;;;;;7.93;2.15;;;25.10;45.50;;;;;;4999633;28;20042;-69
2021/09/20 11:57:22;;;;;;;6.80;2.75;;;25.10;45.50;;;;;;5000299;28;20446;-67
2021/09/20 12:03:26;;;;;;;3.70;2.40;;;25.20;45.30;;;;;;4971617;28;20088;-69
2021/09/20 12:05:59;;;;;;;5.90;2.40;;;25.30;45.10;;;;;;5002781;28;20107;-70
2021/09/20 12:08:26;;;;;;;3.47;2.20;;;25.40;45.00;;;;;;5007480;28;20092;-72
2021/09/20 12:11:48;;;;;;;3.47;2.20;;;25.40;44.90;;;;;;4995849;28;20404;-71
2021/09/20 12:14:25;;;;;;;6.35;2.45;;;25.50;44.80;;;;;;5009413;28;20156;-71
2021/09/20 12:16:58;;;;;;;5.65;3.20;;;25.50;44.70;;;;;;5007805;28;20069;-67
2021/09/20 12:19:27;;;;;;;4.47;2.10;;;25.60;44.70;;;;;;5006345;28;20121;-69
2021/09/20 12:24:39;;;;;;;6.35;2.25;;;25.60;44.50;;;;;;4993574;28;20046;-69
2021/09/20 12:27:06;;;;;;;3.42;2.38;;;25.60;44.40;;;;;;4997526;28;20861;-66
2021/09/20 12:42:22;;;;;;;3.30;2.40;;;25.80;44.30;;;;;;6077408;23;20018;-65
2021/09/20 12:44:50;;;;;;;2.20;1.95;;;25.80;44.20;;;;;;5010065;28;20459;-72
2021/09/20 12:47:26;;;;;;;4.22;2.58;;;25.80;44.00;;;;;;5015759;28;20061;-69
2021/09/20 12:50:40;;;;;;;2.53;2.10;;;25.90;43.90;;;;;;5013064;28;20115;-67
2021/09/20 12:53:49;;;;;;;3.30;2.42;;;25.90;43.80;;;;;;5020637;28;20046;-66
2021/09/20 12:56:17;;;;;;;4.40;2.45;;;25.90;43.80;;;;;;5014118;28;20081;-68
2021/09/20 12:58:49;;;;;;;4.65;2.25;;;25.90;43.80;;;;;;5017477;28;20092;-70
2021/09/20 13:04:36;;;;;;;4.30;2.95;;;25.90;43.70;;;;;;5012739;28;20060;-67
2021/09/20 13:07:20;;;;;;;1.80;1.70;;;25.90;43.60;;;;;;5019953;28;20502;-70
2021/09/20 13:10:16;;;;;;;3.88;2.42;;;25.90;43.60;;;;;;5017877;28;20047;-74
2021/09/20 13:12:54;;;;;;;3.35;2.10;;;25.90;43.50;;;;;;5018652;28;20077;-78
2021/09/20 13:15:25;;;;;;;2.38;2.17;;;26.00;43.60;;;;;;5022271;28;20133;-69
2021/09/20 13:17:54;;;;;;;3.92;2.28;;;26.00;43.50;;;;;;5013571;28;20582;-66
2021/09/20 13:20:43;;;;;;;4.80;2.10;;;26.00;43.50;;;;;;5013118;28;20073;-71
2021/09/20 13:23:38;;;;;;;3.22;2.22;;;26.00;43.50;;;;;;5012033;28;20132;-71
2021/09/20 13:26:05;;;;;;;6.25;2.15;;;26.00;43.50;;;;;;5019200;28;20132;-65
2021/09/20 13:28:35;;;;;;;3.88;2.47;;;26.00;43.30;;;;;;5016896;28;20073;-67
2021/09/20 13:31:05;;;;;;;3.83;2.20;;;26.00;43.20;;;;;;5017813;28;20037;-67
2021/09/20 13:33:32;;;;;;;3.30;2.00;;;26.00;43.10;;;;;;5018210;28;20100;-72
2021/09/20 13:36:07;;;;;;;3.35;2.72;;;26.10;43.10;;;;;;5017432;28;20125;-68